sensor_id;sensor_type;location;lat;lon;timestamp;pressure;altitude;pressure_sealevel;temperature
40624;BMP280;26325;48.594;11.650;2022-07-06T00:01:56;97010.34;;;13.94
40624;BMP280;26325;48.594;11.650;2022-07-06T00:04:22;97010.03;;;13.86
40624;BMP280;26325;48.594;11.650;2022-07-06T00:06:47;97015.13;;;14.07
40624;BMP280;26325;48.594;11.650;2022-07-06T00:09:13;97010.63;;;13.97
40624;BMP280;26325;48.594;11.650;2022-07-06T00:11:41;97015.81;;;13.97
40624;BMP280;26325;48.594;11.650;2022-07-06T00:14:07;97013.00;;;13.99
40624;BMP280;26325;48.594;11.650;2022-07-06T00:16:35;97019.22;;;13.98
40624;BMP280;26325;48.594;11.650;2022-07-06T00:19:03;97013.47;;;13.91
40624;BMP280;26325;48.594;11.650;2022-07-06T00:21:28;97022.28;;;13.95
40624;BMP280;26325;48.594;11.650;2022-07-06T00:23:54;97025.47;;;14.02
40624;BMP280;26325;48.594;11.650;2022-07-06T00:26:24;97022.91;;;14.07
40624;BMP280;26325;48.594;11.650;2022-07-06T00:28:52;97023.69;;;14.07
40624;BMP280;26325;48.594;11.650;2022-07-06T00:31:20;97024.72;;;14.06
40624;BMP280;26325;48.594;11.650;2022-07-06T00:33:47;97030.22;;;14.14
40624;BMP280;26325;48.594;11.650;2022-07-06T00:36:13;97025.00;;;14.10
40624;BMP280;26325;48.594;11.650;2022-07-06T00:38:39;97034.31;;;14.01
40624;BMP280;26325;48.594;11.650;2022-07-06T00:41:07;97031.13;;;13.94
40624;BMP280;26325;48.594;11.650;2022-07-06T00:43:53;97034.19;;;13.86
40624;BMP280;26325;48.594;11.650;2022-07-06T00:46:28;97029.88;;;13.71
40624;BMP280;26325;48.594;11.650;2022-07-06T00:48:56;97029.97;;;13.50
40624;BMP280;26325;48.594;11.650;2022-07-06T00:51:29;97030.44;;;13.42
40624;BMP280;26325;48.594;11.650;2022-07-06T00:54:04;97025.41;;;13.31
40624;BMP280;26325;48.594;11.650;2022-07-06T00:56:32;97031.06;;;13.28
40624;BMP280;26325;48.594;11.650;2022-07-06T00:59:00;97020.66;;;13.23
40624;BMP280;26325;48.594;11.650;2022-07-06T01:03:51;97020.09;;;13.21
40624;BMP280;26325;48.594;11.650;2022-07-06T01:06:20;97019.66;;;13.29
40624;BMP280;26325;48.594;11.650;2022-07-06T01:08:49;97016.75;;;13.25
40624;BMP280;26325;48.594;11.650;2022-07-06T01:11:18;97014.88;;;13.16
40624;BMP280;26325;48.594;11.650;2022-07-06T01:13:49;97011.41;;;13.06
40624;BMP280;26325;48.594;11.650;2022-07-06T01:16:22;97007.47;;;13.03
40624;BMP280;26325;48.594;11.650;2022-07-06T01:18:47;97004.34;;;13.01
40624;BMP280;26325;48.594;11.650;2022-07-06T01:21:14;97004.84;;;12.98
40624;BMP280;26325;48.594;11.650;2022-07-06T01:23:45;96998.00;;;12.88
40624;BMP280;26325;48.594;11.650;2022-07-06T01:26:16;97003.19;;;12.88
40624;BMP280;26325;48.594;11.650;2022-07-06T01:28:51;97007.34;;;12.89
40624;BMP280;26325;48.594;11.650;2022-07-06T01:31:26;97000.53;;;12.83
40624;BMP280;26325;48.594;11.650;2022-07-06T01:33:56;97005.19;;;12.81
40624;BMP280;26325;48.594;11.650;2022-07-06T01:36:22;97009.31;;;12.82
40624;BMP280;26325;48.594;11.650;2022-07-06T01:38:53;97004.13;;;12.82
40624;BMP280;26325;48.594;11.650;2022-07-06T01:41:20;97004.25;;;12.92
40624;BMP280;26325;48.594;11.650;2022-07-06T01:43:48;97002.31;;;13.03
40624;BMP280;26325;48.594;11.650;2022-07-06T01:46:16;97002.94;;;13.15
40624;BMP280;26325;48.594;11.650;2022-07-06T01:48:42;97007.81;;;13.12
40624;BMP280;26325;48.594;11.650;2022-07-06T01:51:08;97008.06;;;13.10
40624;BMP280;26325;48.594;11.650;2022-07-06T01:53:35;97007.81;;;13.12
40624;BMP280;26325;48.594;11.650;2022-07-06T01:56:01;97002.00;;;13.00
40624;BMP280;26325;48.594;11.650;2022-07-06T01:58:26;97002.31;;;12.82
40624;BMP280;26325;48.594;11.650;2022-07-06T02:00:52;97002.59;;;12.81
40624;BMP280;26325;48.594;11.650;2022-07-06T02:03:21;97006.31;;;12.90
40624;BMP280;26325;48.594;11.650;2022-07-06T02:05:49;97010.78;;;12.73
40624;BMP280;26325;48.594;11.650;2022-07-06T02:08:17;97012.78;;;12.66
40624;BMP280;26325;48.594;11.650;2022-07-06T02:10:42;97007.06;;;12.64
40624;BMP280;26325;48.594;11.650;2022-07-06T02:13:10;97004.38;;;12.59
40624;BMP280;26325;48.594;11.650;2022-07-06T02:15:36;97010.22;;;12.50
40624;BMP280;26325;48.594;11.650;2022-07-06T02:18:04;97005.00;;;12.45
40624;BMP280;26325;48.594;11.650;2022-07-06T02:20:30;97003.66;;;12.43
40624;BMP280;26325;48.594;11.650;2022-07-06T02:22:57;97009.84;;;12.42
40624;BMP280;26325;48.594;11.650;2022-07-06T02:25:22;97006.50;;;12.62
40624;BMP280;26325;48.594;11.650;2022-07-06T02:27:52;96999.66;;;12.56
40624;BMP280;26325;48.594;11.650;2022-07-06T02:30:18;97010.41;;;12.44
40624;BMP280;26325;48.594;11.650;2022-07-06T02:32:48;97010.28;;;12.34
40624;BMP280;26325;48.594;11.650;2022-07-06T02:35:16;97002.75;;;12.33
40624;BMP280;26325;48.594;11.650;2022-07-06T02:37:46;97019.91;;;12.18
40624;BMP280;26325;48.594;11.650;2022-07-06T02:40:12;97015.19;;;12.15
40624;BMP280;26325;48.594;11.650;2022-07-06T02:42:44;97014.53;;;12.03
40624;BMP280;26325;48.594;11.650;2022-07-06T02:45:10;97018.19;;;12.07
40624;BMP280;26325;48.594;11.650;2022-07-06T02:47:42;97010.00;;;12.15
40624;BMP280;26325;48.594;11.650;2022-07-06T02:52:33;97028.09;;;12.10
40624;BMP280;26325;48.594;11.650;2022-07-06T02:55:01;97025.41;;;12.05
40624;BMP280;26325;48.594;11.650;2022-07-06T02:57:29;97015.72;;;11.96
40624;BMP280;26325;48.594;11.650;2022-07-06T03:00:03;97021.38;;;12.14
40624;BMP280;26325;48.594;11.650;2022-07-06T03:02:31;97016.16;;;12.09
40624;BMP280;26325;48.594;11.650;2022-07-06T03:04:57;97019.44;;;12.04
40624;BMP280;26325;48.594;11.650;2022-07-06T03:07:25;97024.78;;;11.98
40624;BMP280;26325;48.594;11.650;2022-07-06T03:09:51;97031.47;;;11.94
40624;BMP280;26325;48.594;11.650;2022-07-06T03:12:21;97029.81;;;11.88
40624;BMP280;26325;48.594;11.650;2022-07-06T03:14:51;97034.38;;;11.81
40624;BMP280;26325;48.594;11.650;2022-07-06T03:17:23;97034.59;;;11.96
40624;BMP280;26325;48.594;11.650;2022-07-06T03:19:49;97040.63;;;12.18
40624;BMP280;26325;48.594;11.650;2022-07-06T03:22:21;97048.84;;;12.15
40624;BMP280;26325;48.594;11.650;2022-07-06T03:24:46;97046.91;;;12.42
40624;BMP280;26325;48.594;11.650;2022-07-06T03:27:14;97046.22;;;12.31
40624;BMP280;26325;48.594;11.650;2022-07-06T03:29:42;97050.50;;;12.20
40624;BMP280;26325;48.594;11.650;2022-07-06T03:32:15;97049.34;;;12.12
40624;BMP280;26325;48.594;11.650;2022-07-06T03:34:41;97059.69;;;12.12
40624;BMP280;26325;48.594;11.650;2022-07-06T03:37:12;97057.13;;;12.12
40624;BMP280;26325;48.594;11.650;2022-07-06T03:39:39;97058.75;;;12.18
40624;BMP280;26325;48.594;11.650;2022-07-06T03:42:05;97065.41;;;12.14
40624;BMP280;26325;48.594;11.650;2022-07-06T03:44:31;97059.94;;;12.10
40624;BMP280;26325;48.594;11.650;2022-07-06T03:47:00;97056.56;;;12.10
40624;BMP280;26325;48.594;11.650;2022-07-06T03:49:26;97058.69;;;12.13
40624;BMP280;26325;48.594;11.650;2022-07-06T03:51:53;97049.50;;;12.05
40624;BMP280;26325;48.594;11.650;2022-07-06T03:54:24;97057.56;;;12.09
40624;BMP280;26325;48.594;11.650;2022-07-06T03:56:54;97057.13;;;12.12
40624;BMP280;26325;48.594;11.650;2022-07-06T03:59:22;97047.84;;;12.16
40624;BMP280;26325;48.594;11.650;2022-07-06T04:01:50;97049.63;;;12.15
40624;BMP280;26325;48.594;11.650;2022-07-06T04:04:18;97050.09;;;12.28
40624;BMP280;26325;48.594;11.650;2022-07-06T04:06:49;97051.53;;;12.40
40624;BMP280;26325;48.594;11.650;2022-07-06T04:09:17;97045.66;;;12.45
40624;BMP280;26325;48.594;11.650;2022-07-06T04:11:42;97054.91;;;12.41
40624;BMP280;26325;48.594;11.650;2022-07-06T04:14:12;97059.06;;;12.42
40624;BMP280;26325;48.594;11.650;2022-07-06T04:16:40;97060.22;;;12.51
40624;BMP280;26325;48.594;11.650;2022-07-06T04:19:08;97067.91;;;12.62
40624;BMP280;26325;48.594;11.650;2022-07-06T04:21:39;97055.03;;;12.67
40624;BMP280;26325;48.594;11.650;2022-07-06T04:24:05;97063.38;;;12.74
40624;BMP280;26325;48.594;11.650;2022-07-06T04:26:30;97064.81;;;12.81
40624;BMP280;26325;48.594;11.650;2022-07-06T04:28:58;97061.78;;;12.89
40624;BMP280;26325;48.594;11.650;2022-07-06T04:31:29;97069.59;;;12.94
40624;BMP280;26325;48.594;11.650;2022-07-06T04:33:54;97072.97;;;13.15
40624;BMP280;26325;48.594;11.650;2022-07-06T04:36:22;97075.63;;;13.25
40624;BMP280;26325;48.594;11.650;2022-07-06T04:38:50;97076.72;;;13.29
40624;BMP280;26325;48.594;11.650;2022-07-06T04:41:20;97076.06;;;13.43
40624;BMP280;26325;48.594;11.650;2022-07-06T04:43:47;97081.88;;;13.50
40624;BMP280;26325;48.594;11.650;2022-07-06T04:46:16;97076.47;;;13.56
40624;BMP280;26325;48.594;11.650;2022-07-06T04:48:44;97072.94;;;13.67
40624;BMP280;26325;48.594;11.650;2022-07-06T04:51:12;97082.41;;;13.82
40624;BMP280;26325;48.594;11.650;2022-07-06T04:53:40;97077.81;;;13.89
40624;BMP280;26325;48.594;11.650;2022-07-06T04:56:08;97085.66;;;13.94
40624;BMP280;26325;48.594;11.650;2022-07-06T04:58:36;97083.66;;;14.01
40624;BMP280;26325;48.594;11.650;2022-07-06T05:01:10;97083.97;;;14.09
40624;BMP280;26325;48.594;11.650;2022-07-06T05:03:38;97079.63;;;14.19
40624;BMP280;26325;48.594;11.650;2022-07-06T05:06:10;97083.34;;;14.33
40624;BMP280;26325;48.594;11.650;2022-07-06T05:08:35;97087.28;;;14.40
40624;BMP280;26325;48.594;11.650;2022-07-06T05:11:01;97084.25;;;14.53
40624;BMP280;26325;48.594;11.650;2022-07-06T05:13:26;97083.53;;;14.72
40624;BMP280;26325;48.594;11.650;2022-07-06T05:15:52;97091.94;;;14.88
40624;BMP280;26325;48.594;11.650;2022-07-06T05:20:48;97091.84;;;15.34
40624;BMP280;26325;48.594;11.650;2022-07-06T05:23:16;97093.22;;;15.56
40624;BMP280;26325;48.594;11.650;2022-07-06T05:25:41;97094.78;;;15.71
40624;BMP280;26325;48.594;11.650;2022-07-06T05:28:09;97103.13;;;15.88
40624;BMP280;26325;48.594;11.650;2022-07-06T05:30:34;97105.00;;;16.12
40624;BMP280;26325;48.594;11.650;2022-07-06T05:33:00;97095.88;;;16.34
40624;BMP280;26325;48.594;11.650;2022-07-06T05:35:25;97089.81;;;16.53
40624;BMP280;26325;48.594;11.650;2022-07-06T05:37:51;97091.06;;;16.70
40624;BMP280;26325;48.594;11.650;2022-07-06T05:40:16;97093.63;;;16.89
40624;BMP280;26325;48.594;11.650;2022-07-06T05:42:44;97096.41;;;17.12
40624;BMP280;26325;48.594;11.650;2022-07-06T05:45:10;97102.38;;;17.27
40624;BMP280;26325;48.594;11.650;2022-07-06T05:47:35;97101.50;;;17.41
40624;BMP280;26325;48.594;11.650;2022-07-06T05:50:24;97106.84;;;17.64
40624;BMP280;26325;48.594;11.650;2022-07-06T05:53:02;97112.44;;;17.91
40624;BMP280;26325;48.594;11.650;2022-07-06T05:55:30;97111.78;;;18.08
40624;BMP280;26325;48.594;11.650;2022-07-06T05:57:56;97114.09;;;18.14
40624;BMP280;26325;48.594;11.650;2022-07-06T06:00:26;97102.81;;;18.19
40624;BMP280;26325;48.594;11.650;2022-07-06T06:02:57;97106.03;;;18.39
40624;BMP280;26325;48.594;11.650;2022-07-06T06:05:25;97098.03;;;18.53
40624;BMP280;26325;48.594;11.650;2022-07-06T06:07:51;97109.38;;;18.44
40624;BMP280;26325;48.594;11.650;2022-07-06T06:10:25;97110.25;;;18.86
40624;BMP280;26325;48.594;11.650;2022-07-06T06:12:51;97108.00;;;18.79
40624;BMP280;26325;48.594;11.650;2022-07-06T06:15:21;97115.66;;;18.94
40624;BMP280;26325;48.594;11.650;2022-07-06T06:17:47;97105.31;;;19.07
40624;BMP280;26325;48.594;11.650;2022-07-06T06:20:17;97104.72;;;19.33
40624;BMP280;26325;48.594;11.650;2022-07-06T06:22:57;97110.16;;;19.59
40624;BMP280;26325;48.594;11.650;2022-07-06T06:25:42;97107.72;;;19.81
40624;BMP280;26325;48.594;11.650;2022-07-06T06:28:10;97112.97;;;19.99
40624;BMP280;26325;48.594;11.650;2022-07-06T06:30:39;97106.72;;;20.13
40624;BMP280;26325;48.594;11.650;2022-07-06T06:33:05;97117.63;;;20.20
40624;BMP280;26325;48.594;11.650;2022-07-06T06:35:31;97109.59;;;20.29
40624;BMP280;26325;48.594;11.650;2022-07-06T06:37:56;97117.28;;;20.39
40624;BMP280;26325;48.594;11.650;2022-07-06T06:40:27;97116.56;;;20.65
40624;BMP280;26325;48.594;11.650;2022-07-06T06:42:52;97107.84;;;20.82
40624;BMP280;26325;48.594;11.650;2022-07-06T06:45:19;97111.56;;;20.95
40624;BMP280;26325;48.594;11.650;2022-07-06T06:47:45;97107.28;;;21.12
40624;BMP280;26325;48.594;11.650;2022-07-06T06:50:11;97103.63;;;21.13
40624;BMP280;26325;48.594;11.650;2022-07-06T06:52:39;97114.34;;;21.16
40624;BMP280;26325;48.594;11.650;2022-07-06T06:55:08;97098.50;;;21.42
40624;BMP280;26325;48.594;11.650;2022-07-06T06:57:33;97099.34;;;21.64
40624;BMP280;26325;48.594;11.650;2022-07-06T06:59:59;97100.91;;;21.65
40624;BMP280;26325;48.594;11.650;2022-07-06T07:02:24;97101.16;;;21.90
40624;BMP280;26325;48.594;11.650;2022-07-06T07:04:53;97108.69;;;22.05
40624;BMP280;26325;48.594;11.650;2022-07-06T07:07:25;97104.16;;;22.18
40624;BMP280;26325;48.594;11.650;2022-07-06T07:09:50;97105.03;;;22.35
40624;BMP280;26325;48.594;11.650;2022-07-06T07:12:19;97109.63;;;22.52
40624;BMP280;26325;48.594;11.650;2022-07-06T07:14:47;97100.16;;;22.72
40624;BMP280;26325;48.594;11.650;2022-07-06T07:17:13;97096.69;;;22.93
40624;BMP280;26325;48.594;11.650;2022-07-06T07:19:42;97099.72;;;23.16
40624;BMP280;26325;48.594;11.650;2022-07-06T07:22:07;97098.09;;;23.29
40624;BMP280;26325;48.594;11.650;2022-07-06T07:24:33;97099.19;;;23.44
40624;BMP280;26325;48.594;11.650;2022-07-06T07:27:03;97104.50;;;23.61
40624;BMP280;26325;48.594;11.650;2022-07-06T07:29:29;97100.31;;;23.76
40624;BMP280;26325;48.594;11.650;2022-07-06T07:32:04;97103.72;;;23.93
40624;BMP280;26325;48.594;11.650;2022-07-06T07:34:32;97108.44;;;23.96
40624;BMP280;26325;48.594;11.650;2022-07-06T07:37:00;97099.25;;;24.10
40624;BMP280;26325;48.594;11.650;2022-07-06T07:39:28;97099.41;;;24.22
40624;BMP280;26325;48.594;11.650;2022-07-06T07:41:58;97100.47;;;24.38
40624;BMP280;26325;48.594;11.650;2022-07-06T07:44:24;97099.41;;;24.30
40624;BMP280;26325;48.594;11.650;2022-07-06T07:46:55;97099.56;;;24.34
40624;BMP280;26325;48.594;11.650;2022-07-06T07:49:20;97102.19;;;24.42
40624;BMP280;26325;48.594;11.650;2022-07-06T07:51:48;97108.84;;;24.48
40624;BMP280;26325;48.594;11.650;2022-07-06T07:54:17;97108.50;;;24.66
40624;BMP280;26325;48.594;11.650;2022-07-06T07:56:47;97104.38;;;24.93
40624;BMP280;26325;48.594;11.650;2022-07-06T07:59:12;97113.69;;;24.99
40624;BMP280;26325;48.594;11.650;2022-07-06T08:01:43;97109.31;;;25.03
40624;BMP280;26325;48.594;11.650;2022-07-06T08:04:09;97105.94;;;24.94
40624;BMP280;26325;48.594;11.650;2022-07-06T08:06:40;97108.94;;;25.13
40624;BMP280;26325;48.594;11.650;2022-07-06T08:09:08;97114.09;;;25.09
40624;BMP280;26325;48.594;11.650;2022-07-06T08:11:34;97108.25;;;25.32
40624;BMP280;26325;48.594;11.650;2022-07-06T08:14:03;97110.53;;;25.70
40624;BMP280;26325;48.594;11.650;2022-07-06T08:16:31;97104.59;;;26.13
40624;BMP280;26325;48.594;11.650;2022-07-06T08:18:59;97108.53;;;26.27
40624;BMP280;26325;48.594;11.650;2022-07-06T08:21:29;97113.88;;;26.39
40624;BMP280;26325;48.594;11.650;2022-07-06T08:23:55;97115.03;;;26.30
40624;BMP280;26325;48.594;11.650;2022-07-06T08:26:33;97107.72;;;26.90
40624;BMP280;26325;48.594;11.650;2022-07-06T08:29:01;97114.97;;;27.13
40624;BMP280;26325;48.594;11.650;2022-07-06T08:31:31;97109.00;;;27.16
40624;BMP280;26325;48.594;11.650;2022-07-06T08:33:58;97114.19;;;27.59
40624;BMP280;26325;48.594;11.650;2022-07-06T08:36:28;97105.75;;;27.81
40624;BMP280;26325;48.594;11.650;2022-07-06T08:38:57;97106.56;;;28.08
40624;BMP280;26325;48.594;11.650;2022-07-06T08:41:36;97112.31;;;28.10
40624;BMP280;26325;48.594;11.650;2022-07-06T08:44:06;97117.53;;;28.45
40624;BMP280;26325;48.594;11.650;2022-07-06T08:46:40;97120.22;;;28.60
40624;BMP280;26325;48.594;11.650;2022-07-06T08:49:07;97110.47;;;28.64
40624;BMP280;26325;48.594;11.650;2022-07-06T08:51:56;97124.41;;;29.03
40624;BMP280;26325;48.594;11.650;2022-07-06T08:54:22;97117.13;;;29.15
40624;BMP280;26325;48.594;11.650;2022-07-06T08:56:52;97111.13;;;29.48
40624;BMP280;26325;48.594;11.650;2022-07-06T08:59:22;97123.19;;;29.61
40624;BMP280;26325;48.594;11.650;2022-07-06T09:01:47;97116.16;;;30.02
40624;BMP280;26325;48.594;11.650;2022-07-06T09:04:17;97117.84;;;29.76
40624;BMP280;26325;48.594;11.650;2022-07-06T09:06:49;97121.06;;;30.19
40624;BMP280;26325;48.594;11.650;2022-07-06T09:09:21;97115.19;;;29.61
40624;BMP280;26325;48.594;11.650;2022-07-06T09:11:53;97109.22;;;29.98
40624;BMP280;26325;48.594;11.650;2022-07-06T09:14:19;97115.91;;;30.62
40624;BMP280;26325;48.594;11.650;2022-07-06T09:16:51;97120.34;;;30.77
40624;BMP280;26325;48.594;11.650;2022-07-06T09:19:17;97122.28;;;30.80
40624;BMP280;26325;48.594;11.650;2022-07-06T09:22:07;97110.34;;;31.37
40624;BMP280;26325;48.594;11.650;2022-07-06T09:24:41;97109.97;;;31.60
40624;BMP280;26325;48.594;11.650;2022-07-06T09:27:16;97115.28;;;31.57
40624;BMP280;26325;48.594;11.650;2022-07-06T09:29:43;97116.50;;;31.62
40624;BMP280;26325;48.594;11.650;2022-07-06T09:32:19;97119.69;;;31.71
40624;BMP280;26325;48.594;11.650;2022-07-06T09:34:49;97125.38;;;31.95
40624;BMP280;26325;48.594;11.650;2022-07-06T09:37:15;97121.19;;;31.94
40624;BMP280;26325;48.594;11.650;2022-07-06T09:39:43;97128.59;;;32.36
40624;BMP280;26325;48.594;11.650;2022-07-06T09:42:23;97118.88;;;32.50
40624;BMP280;26325;48.594;11.650;2022-07-06T09:44:50;97113.28;;;32.97
40624;BMP280;26325;48.594;11.650;2022-07-06T09:47:20;97118.34;;;33.51
40624;BMP280;26325;48.594;11.650;2022-07-06T09:49:46;97110.47;;;33.72
40624;BMP280;26325;48.594;11.650;2022-07-06T09:52:14;97119.31;;;33.79
40624;BMP280;26325;48.594;11.650;2022-07-06T09:54:40;97111.94;;;33.63
40624;BMP280;26325;48.594;11.650;2022-07-06T09:57:13;97124.53;;;33.59
40624;BMP280;26325;48.594;11.650;2022-07-06T09:59:39;97119.81;;;33.42
40624;BMP280;26325;48.594;11.650;2022-07-06T10:02:07;97122.09;;;33.40
40624;BMP280;26325;48.594;11.650;2022-07-06T10:04:34;97121.53;;;33.64
40624;BMP280;26325;48.594;11.650;2022-07-06T10:07:03;97121.53;;;33.64
40624;BMP280;26325;48.594;11.650;2022-07-06T10:09:32;97120.66;;;33.53
40624;BMP280;26325;48.594;11.650;2022-07-06T10:12:02;97116.94;;;34.34
40624;BMP280;26325;48.594;11.650;2022-07-06T10:14:33;97113.56;;;34.50
40624;BMP280;26325;48.594;11.650;2022-07-06T10:17:03;97119.44;;;33.96
40624;BMP280;26325;48.594;11.650;2022-07-06T10:19:32;97127.69;;;32.86
40624;BMP280;26325;48.594;11.650;2022-07-06T10:22:03;97110.53;;;32.26
40624;BMP280;26325;48.594;11.650;2022-07-06T10:24:32;97108.47;;;32.13
40624;BMP280;26325;48.594;11.650;2022-07-06T10:26:59;97113.34;;;33.04
40624;BMP280;26325;48.594;11.650;2022-07-06T10:29:30;97111.81;;;33.03
40624;BMP280;26325;48.594;11.650;2022-07-06T10:31:55;97127.38;;;32.59
40624;BMP280;26325;48.594;11.650;2022-07-06T10:34:21;97117.97;;;31.85
40624;BMP280;26325;48.594;11.650;2022-07-06T10:39:38;97098.88;;;31.58
40624;BMP280;26325;48.594;11.650;2022-07-06T10:42:45;97101.81;;;31.28
40624;BMP280;26325;48.594;11.650;2022-07-06T10:45:15;97102.34;;;31.37
40624;BMP280;26325;48.594;11.650;2022-07-06T10:47:47;97105.22;;;31.47
40624;BMP280;26325;48.594;11.650;2022-07-06T10:50:13;97104.13;;;31.76
40624;BMP280;26325;48.594;11.650;2022-07-06T10:52:59;97099.00;;;32.48
40624;BMP280;26325;48.594;11.650;2022-07-06T10:55:40;97100.22;;;33.35
40624;BMP280;26325;48.594;11.650;2022-07-06T10:58:08;97090.06;;;33.50
40624;BMP280;26325;48.594;11.650;2022-07-06T11:00:54;97092.22;;;32.28
40624;BMP280;26325;48.594;11.650;2022-07-06T11:06:38;97098.00;;;30.07
40624;BMP280;26325;48.594;11.650;2022-07-06T11:09:10;97099.03;;;29.36
40624;BMP280;26325;48.594;11.650;2022-07-06T11:14:18;97112.09;;;28.68
40624;BMP280;26325;48.594;11.650;2022-07-06T11:19:16;97105.22;;;27.87
40624;BMP280;26325;48.594;11.650;2022-07-06T11:24:32;97109.28;;;30.01
40624;BMP280;26325;48.594;11.650;2022-07-06T11:26:59;97109.72;;;30.99
40624;BMP280;26325;48.594;11.650;2022-07-06T11:29:27;97099.91;;;31.76
40624;BMP280;26325;48.594;11.650;2022-07-06T11:31:56;97100.53;;;31.18
40624;BMP280;26325;48.594;11.650;2022-07-06T11:34:25;97101.34;;;31.44
40624;BMP280;26325;48.594;11.650;2022-07-06T11:36:59;97100.53;;;31.91
40624;BMP280;26325;48.594;11.650;2022-07-06T11:39:30;97090.34;;;32.96
40624;BMP280;26325;48.594;11.650;2022-07-06T11:41:57;97098.69;;;33.34
40624;BMP280;26325;48.594;11.650;2022-07-06T11:44:23;97090.97;;;33.75
40624;BMP280;26325;48.594;11.650;2022-07-06T11:46:49;97080.50;;;34.12
40624;BMP280;26325;48.594;11.650;2022-07-06T11:49:15;97096.97;;;33.55
40624;BMP280;26325;48.594;11.650;2022-07-06T11:51:44;97090.94;;;33.19
40624;BMP280;26325;48.594;11.650;2022-07-06T11:54:16;97087.56;;;33.81
40624;BMP280;26325;48.594;11.650;2022-07-06T11:56:51;97094.09;;;33.34
40624;BMP280;26325;48.594;11.650;2022-07-06T11:59:41;97082.34;;;33.42
40624;BMP280;26325;48.594;11.650;2022-07-06T12:12:02;97062.28;;;34.55
40624;BMP280;26325;48.594;11.650;2022-07-06T12:14:32;97063.06;;;34.76
40624;BMP280;26325;48.594;11.650;2022-07-06T12:17:04;97054.16;;;34.35
40624;BMP280;26325;48.594;11.650;2022-07-06T12:19:31;97059.22;;;34.60
40624;BMP280;26325;48.594;11.650;2022-07-06T12:21:57;97060.44;;;34.83
40624;BMP280;26325;48.594;11.650;2022-07-06T12:24:28;97054.72;;;35.32
40624;BMP280;26325;48.594;11.650;2022-07-06T12:26:56;97053.88;;;35.62
40624;BMP280;26325;48.594;11.650;2022-07-06T12:29:22;97058.19;;;35.26
40624;BMP280;26325;48.594;11.650;2022-07-06T12:31:56;97063.06;;;35.92
40624;BMP280;26325;48.594;11.650;2022-07-06T12:34:29;97052.97;;;36.27
40624;BMP280;26325;48.594;11.650;2022-07-06T12:37:07;97055.06;;;35.21
40624;BMP280;26325;48.594;11.650;2022-07-06T12:42:17;97058.44;;;36.00
40624;BMP280;26325;48.594;11.650;2022-07-06T12:47:21;97055.84;;;35.45
40624;BMP280;26325;48.594;11.650;2022-07-06T12:50:04;97050.06;;;35.63
40624;BMP280;26325;48.594;11.650;2022-07-06T12:52:33;97041.44;;;36.30
40624;BMP280;26325;48.594;11.650;2022-07-06T12:55:02;97033.63;;;36.52
40624;BMP280;26325;48.594;11.650;2022-07-06T12:57:47;97029.78;;;37.13
40624;BMP280;26325;48.594;11.650;2022-07-06T13:00:14;97037.84;;;37.13
40624;BMP280;26325;48.594;11.650;2022-07-06T13:02:40;97037.31;;;36.82
40624;BMP280;26325;48.594;11.650;2022-07-06T13:05:12;97031.63;;;37.19
40624;BMP280;26325;48.594;11.650;2022-07-06T13:07:48;97040.84;;;35.85
40624;BMP280;26325;48.594;11.650;2022-07-06T13:10:15;97037.84;;;35.08
40624;BMP280;26325;48.594;11.650;2022-07-06T13:12:44;97031.69;;;35.48
40624;BMP280;26325;48.594;11.650;2022-07-06T13:15:17;97035.09;;;35.62
40624;BMP280;26325;48.594;11.650;2022-07-06T13:17:45;97044.31;;;35.68
40624;BMP280;26325;48.594;11.650;2022-07-06T13:20:13;97044.63;;;35.94
40624;BMP280;26325;48.594;11.650;2022-07-06T13:22:45;97032.72;;;36.76
40624;BMP280;26325;48.594;11.650;2022-07-06T13:25:12;97042.38;;;35.86
40624;BMP280;26325;48.594;11.650;2022-07-06T13:27:40;97030.06;;;35.92
40624;BMP280;26325;48.594;11.650;2022-07-06T13:30:06;97029.41;;;36.51
40624;BMP280;26325;48.594;11.650;2022-07-06T13:32:32;97030.22;;;36.41
40624;BMP280;26325;48.594;11.650;2022-07-06T13:34:58;97016.63;;;36.72
40624;BMP280;26325;48.594;11.650;2022-07-06T13:37:26;97018.69;;;37.01
40624;BMP280;26325;48.594;11.650;2022-07-06T13:39:54;97017.97;;;36.97
40624;BMP280;26325;48.594;11.650;2022-07-06T13:42:22;97012.09;;;36.59
40624;BMP280;26325;48.594;11.650;2022-07-06T13:44:55;97018.44;;;36.19
40624;BMP280;26325;48.594;11.650;2022-07-06T13:47:20;97017.38;;;35.89
40624;BMP280;26325;48.594;11.650;2022-07-06T13:49:48;97022.25;;;36.28
40624;BMP280;26325;48.594;11.650;2022-07-06T13:52:16;97019.19;;;36.89
40624;BMP280;26325;48.594;11.650;2022-07-06T13:54:41;97012.53;;;37.04
40624;BMP280;26325;48.594;11.650;2022-07-06T13:57:09;97008.31;;;37.49
40624;BMP280;26325;48.594;11.650;2022-07-06T13:59:35;97015.94;;;37.87
40624;BMP280;26325;48.594;11.650;2022-07-06T14:02:00;97002.66;;;38.06
40624;BMP280;26325;48.594;11.650;2022-07-06T14:04:28;97014.78;;;37.91
40624;BMP280;26325;48.594;11.650;2022-07-06T14:06:53;97003.91;;;37.22
40624;BMP280;26325;48.594;11.650;2022-07-06T14:09:19;97008.50;;;37.25
40624;BMP280;26325;48.594;11.650;2022-07-06T14:11:45;97016.63;;;37.18
40624;BMP280;26325;48.594;11.650;2022-07-06T14:14:14;97011.50;;;36.88
40624;BMP280;26325;48.594;11.650;2022-07-06T14:16:45;97006.00;;;37.44
40624;BMP280;26325;48.594;11.650;2022-07-06T14:19:10;97010.13;;;37.16
40624;BMP280;26325;48.594;11.650;2022-07-06T14:21:36;97006.41;;;37.03
40624;BMP280;26325;48.594;11.650;2022-07-06T14:24:02;97009.00;;;36.60
40624;BMP280;26325;48.594;11.650;2022-07-06T14:26:27;97002.94;;;35.42
40624;BMP280;26325;48.594;11.650;2022-07-06T14:28:57;97010.19;;;34.63
40624;BMP280;26325;48.594;11.650;2022-07-06T14:31:24;96999.72;;;34.24
40624;BMP280;26325;48.594;11.650;2022-07-06T14:33:50;97004.34;;;34.20
40624;BMP280;26325;48.594;11.650;2022-07-06T14:36:18;96987.22;;;35.13
40624;BMP280;26325;48.594;11.650;2022-07-06T14:38:46;97000.88;;;35.94
40624;BMP280;26325;48.594;11.650;2022-07-06T14:41:14;96999.91;;;34.92
40624;BMP280;26325;48.594;11.650;2022-07-06T14:43:42;97000.09;;;34.12